North Kingstown, RI (02852)

7:41 PM EDT on July 29, 2016 (GMT -0400)
Stone Gate | | Change Station

Elev 110 ft 41.57 °N, 71.47 °W | Updated 14 seconds ago

Scattered Clouds
Scattered Clouds
75.9 °F
Feels Like 76 °F
N
0.0
Wind Variable Wind from SE
Gusts 1.0 mph

Today
High -- | Low -- °F
--% Chance of Precip.
Yesterday
High -- | Low -- °F
Precip. -- in
Pressure 29.85 in
Visibility 10.0 miles
Clouds Few 3500 ft
Few 16000 ft
Scattered Clouds 25000 ft
Heat Index 76 °F
Dew Point 71 °F
Humidity 86%
Rainfall 0.36 in
Snow Depth Not available.
5:37 AM 8:06 PM
Waning Crescent, 18% visible
METAR KPVD 292251Z 05006KT 10SM FEW035 FEW160 SCT250 27/19 A2985 RMK AO2 SLP108 T02720194
Pressure 29.85 in
Visibility 10.0 miles
Clouds Few 3500 ft
Few 16000 ft
Scattered Clouds 25000 ft
Heat Index 76 °F
Dew Point 71 °F
Humidity 86%
Rainfall 0.36 in
Snow Depth Not available.
5:37 AM 8:06 PM
Waning Crescent, 18% visible
METAR KPVD 292251Z 05006KT 10SM FEW035 FEW160 SCT250 27/19 A2985 RMK AO2 SLP108 T02720194

10-Day Weather Forecast

Almanac

Astronomy

Jul. 29, 2016 Rise Set
Actual Time
Civil Twilight
Nautical Twilight
Astronomical Twilight
Moon
Length of Visible Light
Length of Day
Tomorrow will be .
, % of the Moon is Illuminated

Today's Extremes

State Highs State Lows

Community

WunderPhotos

Upload Photos

1,928,447 photos uploaded!

WunderBlog® & News

Nearby

Air Quality

  Air Quality AQ Index Pollutant
Not available.

Snow Depth

Station Depth Elevation

Earthquake Activity

City Distance Mag. Time & Date
Minimum magnitude displayed is 2.5.

Coastal Water Temperatures

Place Temperature

Stations

Nearby Weather Stations

Station Location Temp. Windchill Dew Point Humidity Wind Precip. Elev Updated Type
                   

Watches & Warnings

There are currently no watches in effect.